Harborcreek, Pennsylvania
Current Conditions -  °F | °C
As of 6:51 PM on Saturday 22 Nov 2014 (Local Time) from KERI Reporting Station
Light Rain Light Rain  
Wind Chill: 35°   Ceiling: 2900
Heat Index: 43°   Visibility: 10mi
Dew Point: 35°   Wind: 16mph
Humidity: 74%   Direction: 200°SSW
Pressure: 30.04"   Gusts: NA
Location:  42.17°N, 79.95°W
Report Text: KERI 222351Z 20014KT 10SM -RA OVC029 06/02 A3004 RMK AO2 PK WND 21026/2328 SLP178 P0008 60011 T00610017 10072 20044 53002
Loading
Personal Weather Stations






























Interactive Weather Map New forecast layout! Learn more

10-Day Weather Forecast

Advertisements
Track Severe Weather on mobile